createdAt,value
2017-05-30T00:00:32.731Z,93.68
2017-05-30T00:01:33.023Z,94.07
2017-05-30T00:02:33.023Z,94.07
2017-05-30T00:03:32.706Z,93.97
2017-05-30T00:04:33.004Z,94.17
2017-05-30T00:05:32.689Z,94.21
2017-05-30T00:06:32.989Z,94.12
2017-05-30T00:07:32.676Z,94.6
2017-05-30T00:08:32.971Z,94.21
2017-05-30T00:09:32.961Z,94.36
2017-05-30T00:10:32.644Z,94.26
2017-05-30T00:11:32.641Z,94.41
2017-05-30T00:12:32.631Z,94.9
2017-05-30T00:13:32.928Z,95.48
2017-05-30T00:14:32.601Z,95.38
2017-05-30T00:15:32.913Z,95.38
2017-05-30T00:16:32.901Z,95.09
2017-05-30T00:17:32.891Z,95.09
2017-05-30T00:18:32.879Z,95.48
2017-05-30T00:19:32.881Z,95.09
2017-05-30T00:20:32.859Z,95.09
2017-05-30T00:21:32.546Z,95.57
2017-05-30T00:22:32.537Z,95.87
2017-05-30T00:23:32.842Z,96.15
2017-05-30T00:24:32.521Z,96.11
2017-05-30T00:25:32.507Z,96.06
2017-05-30T00:26:32.810Z,96.11
2017-05-30T00:27:32.800Z,96.21
2017-05-30T00:28:32.804Z,95.72
2017-05-30T00:29:32.789Z,94.95
2017-05-30T00:30:32.458Z,95.04
2017-05-30T00:31:32.762Z,95.53
2017-05-30T00:32:32.752Z,94.95
2017-05-30T00:33:32.432Z,94.36
2017-05-30T00:34:32.429Z,94.17
2017-05-30T00:35:32.720Z,94.46
2017-05-30T00:36:32.409Z,94.26
2017-05-30T00:37:32.403Z,94.46
2017-05-30T00:38:32.701Z,94.17
2017-05-30T00:39:32.682Z,94.26
2017-05-30T00:40:32.462Z,94.17
2017-05-30T00:41:32.353Z,95.04
2017-05-30T00:42:32.730Z,94.42
2017-05-30T00:43:32.643Z,94.51
2017-05-30T00:44:32.640Z,94.75
2017-05-30T00:45:32.623Z,94.02
2017-05-30T00:46:32.719Z,94.12
2017-05-30T00:47:32.599Z,94.9
2017-05-30T00:48:32.592Z,94.42
2017-05-30T00:49:32.586Z,94.32
2017-05-30T00:50:32.590Z,94.9
2017-05-30T00:51:32.569Z,94.51
2017-05-30T00:52:32.561Z,95
2017-05-30T00:53:32.556Z,94.7
2017-05-30T00:54:32.537Z,94.66
2017-05-30T00:55:32.522Z,94.27
2017-05-30T00:56:32.523Z,94.42
2017-05-30T00:57:32.203Z,94.17
2017-05-30T00:58:32.492Z,94.7
2017-05-30T00:59:32.492Z,94.02
2017-05-30T01:00:32.481Z,94.02
2017-05-30T01:01:32.165Z,94.02
2017-05-30T01:02:32.156Z,93.83
2017-05-30T01:03:32.452Z,93.63
2017-05-30T01:04:32.432Z,93.59
2017-05-30T01:05:32.223Z,93.69
2017-05-30T01:06:32.429Z,93.88
2017-05-30T01:07:32.412Z,94.37
2017-05-30T01:08:32.411Z,94.17
2017-05-30T01:09:32.396Z,94.07
2017-05-30T01:10:32.375Z,94.27
2017-05-30T01:11:32.369Z,93.79
2017-05-30T01:12:32.060Z,93.98
2017-05-30T01:13:32.120Z,93.88
2017-05-30T01:14:32.345Z,94.27
2017-05-30T01:15:32.334Z,94.17
2017-05-30T01:16:32.012Z,93.98
2017-05-30T01:17:32.301Z,94.07
2017-05-30T01:18:31.995Z,94.37
2017-05-30T01:19:32.093Z,94.46
2017-05-30T01:20:32.277Z,94.46
2017-05-30T01:21:31.978Z,94.46
2017-05-30T01:22:32.271Z,94.76
2017-05-30T01:23:31.944Z,94.37
2017-05-30T01:24:32.317Z,94.76
2017-05-30T01:25:32.231Z,94.76
2017-05-30T01:26:31.919Z,95.14
2017-05-30T01:27:31.903Z,95.34
2017-05-30T01:28:32.201Z,94.95
2017-05-30T01:29:32.241Z,95.04
2017-05-30T01:30:31.871Z,94.95
2017-05-30T01:31:32.225Z,95.43
2017-05-30T01:32:32.162Z,95.92
2017-05-30T01:33:31.881Z,96.06
2017-05-30T01:34:32.138Z,96.06
2017-05-30T01:35:32.131Z,96.41
2017-05-30T01:36:31.814Z,96.84
2017-05-30T01:37:31.854Z,96.75
2017-05-30T01:38:32.150Z,97.03
2017-05-30T01:39:32.100Z,97.81
2017-05-30T01:40:32.083Z,97.52
2017-05-30T01:41:32.123Z,98.2
2017-05-30T01:42:32.069Z,98.39
2017-05-30T01:43:31.742Z,97.71
2017-05-30T01:44:32.102Z,97.91
2017-05-30T01:45:32.044Z,98.1
2017-05-30T01:46:32.055Z,98.49
2017-05-30T01:47:31.707Z,98.39
2017-05-30T01:48:31.690Z,98.88
2017-05-30T01:49:31.990Z,98.88
2017-05-30T01:50:32.002Z,98.58
2017-05-30T01:51:31.964Z,99.17
2017-05-30T01:52:31.972Z,98.78
2017-05-30T01:53:31.641Z,98.97
2017-05-30T01:54:31.642Z,98.97
2017-05-30T01:55:31.631Z,99.07
2017-05-30T01:56:31.924Z,99.27
2017-05-30T01:57:31.598Z,99.17
2017-05-30T01:58:31.894Z,99.17
2017-05-30T01:59:31.582Z,99.27
2017-05-30T02:00:31.579Z,99.95
2017-05-30T02:01:31.874Z,99.36
2017-05-30T02:02:31.873Z,99.17
2017-05-30T02:03:31.849Z,99.55
2017-05-30T02:04:31.607Z,99.99
2017-05-30T02:05:31.525Z,99.95
2017-05-30T02:06:31.809Z,99.99
2017-05-30T02:07:31.806Z,99.99
2017-05-30T02:08:31.805Z,99.99
2017-05-30T02:09:31.794Z,99.99
2017-05-30T02:10:31.775Z,99.99
2017-05-30T02:11:31.766Z,99.99
2017-05-30T02:12:31.453Z,99.99
2017-05-30T02:13:31.432Z,99.99
2017-05-30T02:14:31.733Z,99.99
2017-05-30T02:15:31.414Z,99.99
2017-05-30T02:16:31.704Z,99.99
2017-05-30T02:17:31.712Z,99.99
2017-05-30T02:18:31.399Z,99.99
2017-05-30T02:19:31.775Z,99.99
2017-05-30T02:20:31.368Z,99.99
2017-05-30T02:21:31.765Z,99.99
2017-05-30T02:22:31.650Z,99.99
2017-05-30T02:23:31.644Z,99.99
2017-05-30T02:24:31.634Z,99.99
2017-05-30T02:25:31.713Z,99.99
2017-05-30T02:26:31.617Z,99.99
2017-05-30T02:27:31.652Z,99.99
2017-05-30T02:28:31.594Z,99.99
2017-05-30T02:29:31.577Z,99.99
2017-05-30T02:30:31.582Z,99.99
2017-05-30T02:31:31.263Z,99.99
2017-05-30T02:32:31.545Z,99.99
2017-05-30T02:33:31.572Z,99.99
2017-05-30T02:34:31.531Z,99.99
2017-05-30T02:35:31.526Z,99.99
2017-05-30T02:36:31.510Z,99.99
2017-05-30T02:37:31.198Z,99.99
2017-05-30T02:38:31.495Z,99.99
2017-05-30T02:39:31.483Z,99.99
2017-05-30T02:40:31.481Z,99.99
2017-05-30T02:41:31.453Z,99.99
2017-05-30T02:42:31.448Z,99.99
2017-05-30T02:43:31.431Z,99.99
2017-05-30T02:44:31.423Z,99.99
2017-05-30T02:45:31.415Z,99.99
2017-05-30T02:46:31.406Z,99.99
2017-05-30T02:47:31.393Z,99.99
2017-05-30T02:48:31.082Z,99.99
2017-05-30T02:49:31.074Z,99.99
2017-05-30T02:50:31.361Z,99.99
2017-05-30T02:51:31.359Z,99.99
2017-05-30T02:52:31.035Z,99.99
2017-05-30T02:53:31.341Z,99.99
2017-05-30T02:54:31.419Z,99.99
2017-05-30T02:55:31.315Z,99.99
2017-05-30T02:56:30.996Z,99.99
2017-05-30T02:57:31.285Z,99.99
2017-05-30T02:58:31.287Z,99.99
2017-05-30T02:59:31.266Z,99.99
2017-05-30T03:00:31.259Z,99.99
2017-05-30T03:01:31.247Z,99.99
2017-05-30T03:02:31.238Z,99.99
2017-05-30T03:03:31.224Z,99.99
2017-05-30T03:04:30.904Z,99.99
2017-05-30T03:05:30.905Z,99.99
2017-05-30T03:06:31.203Z,99.99
2017-05-30T03:07:31.192Z,99.99
2017-05-30T03:08:31.188Z,99.99
2017-05-30T03:09:31.167Z,99.99
2017-05-30T03:10:31.153Z,99.99
2017-05-30T03:11:30.833Z,99.99
2017-05-30T03:12:30.824Z,99.99
2017-05-30T03:13:31.129Z,99.99
2017-05-30T03:14:31.106Z,99.99
2017-05-30T03:15:31.174Z,99.99
2017-05-30T03:16:30.779Z,99.99
2017-05-30T03:17:30.836Z,99.99
2017-05-30T03:18:31.066Z,99.99
2017-05-30T03:19:30.753Z,99.99
2017-05-30T03:20:31.055Z,99.99
2017-05-30T03:21:31.038Z,99.99
2017-05-30T03:22:31.023Z,99.99
2017-05-30T03:23:31.026Z,99.99
2017-05-30T03:24:30.995Z,99.99
2017-05-30T03:25:31.002Z,99.99
2017-05-30T03:26:30.672Z,99.99
2017-05-30T03:27:30.664Z,99.99
2017-05-30T03:28:30.964Z,99.99
2017-05-30T03:29:30.955Z,99.99
2017-05-30T03:30:30.645Z,99.99
2017-05-30T03:31:30.935Z,99.99
2017-05-30T03:32:30.923Z,99.99
2017-05-30T03:33:30.603Z,99.99
2017-05-30T03:34:30.894Z,99.99
2017-05-30T03:35:30.889Z,99.99
2017-05-30T03:36:30.875Z,99.99
2017-05-30T03:37:30.865Z,99.99
2017-05-30T03:38:30.854Z,99.99
2017-05-30T03:39:30.845Z,99.99
2017-05-30T03:40:30.835Z,99.99
2017-05-30T03:41:30.516Z,99.99
2017-05-30T03:42:30.814Z,99.99
2017-05-30T03:43:30.810Z,99.99
2017-05-30T03:44:30.795Z,99.99
2017-05-30T03:45:30.473Z,99.99
2017-05-30T03:46:30.775Z,99.99
2017-05-30T03:47:30.765Z,99.99
2017-05-30T03:48:30.749Z,99.99
2017-05-30T03:49:30.436Z,99.99
2017-05-30T03:50:30.428Z,99.99
2017-05-30T03:51:30.405Z,99.99
2017-05-30T03:52:30.714Z,99.99
2017-05-30T03:53:30.393Z,99.99
2017-05-30T03:54:30.430Z,99.99
2017-05-30T03:55:30.685Z,99.99
2017-05-30T03:56:30.357Z,99.99
2017-05-30T03:57:30.345Z,99.99
2017-05-30T03:58:30.642Z,99.99
2017-05-30T03:59:30.344Z,99.99
2017-05-30T04:00:30.741Z,99.99
2017-05-30T04:01:30.615Z,99.99
2017-05-30T04:02:30.615Z,99.99
2017-05-30T04:03:30.586Z,99.99
2017-05-30T04:04:30.273Z,99.99
2017-05-30T04:05:30.596Z,99.99
2017-05-30T04:06:30.265Z,99.99
2017-05-30T04:07:30.544Z,99.99
2017-05-30T04:08:30.305Z,99.99
2017-05-30T04:09:30.546Z,99.99
2017-05-30T04:10:30.604Z,99.99
2017-05-30T04:11:30.503Z,99.99
2017-05-30T04:12:30.196Z,99.99
2017-05-30T04:13:30.478Z,99.99
2017-05-30T04:14:30.537Z,99.99
2017-05-30T04:15:30.477Z,99.99
2017-05-30T04:16:30.475Z,99.99
2017-05-30T04:17:30.440Z,99.99
2017-05-30T04:18:30.228Z,99.99
2017-05-30T04:19:30.477Z,99.99
2017-05-30T04:20:30.096Z,99.99
2017-05-30T04:21:30.442Z,99.99
2017-05-30T04:22:30.449Z,99.99
2017-05-30T04:23:30.373Z,99.99
2017-05-30T04:24:30.403Z,99.99
2017-05-30T04:25:30.423Z,99.99
2017-05-30T04:26:30.352Z,99.99
2017-05-30T04:27:30.450Z,99.99
2017-05-30T04:28:30.315Z,99.99
2017-05-30T04:29:30.311Z,99.99
2017-05-30T04:30:30.305Z,99.99
2017-05-30T04:31:30.284Z,99.99
2017-05-30T04:32:30.282Z,99.99
2017-05-30T04:33:30.272Z,99.99
2017-05-30T04:34:30.249Z,99.99
2017-05-30T04:35:30.255Z,99.99
2017-05-30T04:36:30.228Z,99.99
2017-05-30T04:37:30.228Z,99.99
2017-05-30T04:38:30.204Z,99.99
2017-05-30T04:39:30.195Z,99.99
2017-05-30T04:40:30.189Z,99.99
2017-05-30T04:41:30.174Z,99.99
2017-05-30T04:42:30.179Z,99.99
2017-05-30T04:43:29.853Z,99.99
2017-05-30T04:44:29.845Z,99.99
2017-05-30T04:45:29.832Z,99.99
2017-05-30T04:46:29.818Z,99.99
2017-05-30T04:47:30.111Z,99.99
2017-05-30T04:48:30.113Z,99.99
2017-05-30T04:49:30.103Z,99.99
2017-05-30T04:50:29.770Z,99.99
2017-05-30T04:51:29.764Z,99.99
2017-05-30T04:52:29.749Z,99.99
2017-05-30T04:53:29.741Z,99.99
2017-05-30T04:54:30.041Z,99.99
2017-05-30T04:55:30.021Z,99.99
2017-05-30T04:56:30.022Z,99.99
2017-05-30T04:57:30.003Z,99.99
2017-05-30T04:58:29.991Z,99.99
2017-05-30T04:59:29.990Z,99.99
2017-05-30T05:00:29.661Z,99.99
2017-05-30T05:01:29.985Z,99.99
2017-05-30T05:02:29.945Z,99.99
2017-05-30T05:03:29.757Z,99.99
2017-05-30T05:04:30.012Z,99.99
2017-05-30T05:05:29.994Z,99.99
2017-05-30T05:06:29.903Z,99.99
2017-05-30T05:07:29.591Z,99.99
2017-05-30T05:08:29.883Z,99.99
2017-05-30T05:09:29.570Z,99.99
2017-05-30T05:10:29.938Z,99.99
2017-05-30T05:11:29.862Z,99.99
2017-05-30T05:12:29.532Z,99.99
2017-05-30T05:13:29.835Z,99.99
2017-05-30T05:14:29.514Z,99.99
2017-05-30T05:15:29.814Z,99.99
2017-05-30T05:16:29.492Z,99.99
2017-05-30T05:17:29.481Z,99.99
2017-05-30T05:18:29.473Z,99.99
2017-05-30T05:19:29.464Z,99.99
2017-05-30T05:20:29.444Z,99.99
2017-05-30T05:21:29.754Z,99.99
2017-05-30T05:22:29.433Z,99.99
2017-05-30T05:23:29.727Z,99.99
2017-05-30T05:24:29.732Z,99.99
2017-05-30T05:25:29.700Z,99.99
2017-05-30T05:26:29.706Z,99.99
2017-05-30T05:27:29.683Z,99.99
2017-05-30T05:28:29.683Z,99.99
2017-05-30T05:29:29.349Z,99.99
2017-05-30T05:30:29.652Z,99.99
2017-05-30T05:31:29.644Z,99.99
2017-05-30T05:32:29.319Z,99.99
2017-05-30T05:33:29.308Z,99.99
2017-05-30T05:34:29.609Z,99.99
2017-05-30T05:35:29.589Z,99.99
2017-05-30T05:36:29.581Z,99.99
2017-05-30T05:37:29.571Z,99.99
2017-05-30T05:38:29.579Z,99.99
2017-05-30T05:39:29.551Z,99.99
2017-05-30T05:40:29.231Z,99.99
2017-05-30T05:41:29.530Z,99.99
2017-05-30T05:42:29.223Z,99.46
2017-05-30T05:43:29.514Z,99.65
2017-05-30T05:44:29.494Z,98.2
2017-05-30T05:45:29.491Z,98.3
2017-05-30T05:46:29.478Z,97.71
2017-05-30T05:47:29.562Z,97.71
2017-05-30T05:48:29.452Z,96.65
2017-05-30T05:49:29.451Z,96.84
2017-05-30T05:50:29.128Z,96.84
2017-05-30T05:51:29.182Z,96.07
2017-05-30T05:52:29.109Z,96.07
2017-05-30T05:53:29.105Z,96.45
2017-05-30T05:54:29.403Z,96.07
2017-05-30T05:55:29.386Z,96.75
2017-05-30T05:56:29.371Z,96.36
2017-05-30T05:57:29.368Z,96.36
2017-05-30T05:58:29.352Z,95.87
2017-05-30T05:59:29.041Z,95.87
2017-05-30T06:00:29.324Z,95.78
2017-05-30T06:01:29.331Z,95.78
2017-05-30T06:02:29.010Z,95.68
2017-05-30T06:03:28.992Z,95.78
2017-05-30T06:04:29.296Z,95.58
2017-05-30T06:05:28.981Z,95.49
2017-05-30T06:06:28.968Z,95.78
2017-05-30T06:07:28.960Z,95.49
2017-05-30T06:08:29.254Z,95.1
2017-05-30T06:09:28.928Z,95.15
2017-05-30T06:10:29.233Z,95.97
2017-05-30T06:11:28.929Z,95.58
2017-05-30T06:12:29.209Z,95.53
2017-05-30T06:13:29.191Z,95.05
2017-05-30T06:14:28.881Z,95.25
2017-05-30T06:15:28.881Z,94.9
2017-05-30T06:16:29.174Z,96.07
2017-05-30T06:17:28.854Z,96.07
2017-05-30T06:18:29.150Z,96.36
2017-05-30T06:19:29.141Z,95.43
2017-05-30T06:20:29.142Z,95.53
2017-05-30T06:21:29.120Z,95.53
2017-05-30T06:22:29.115Z,94.57
2017-05-30T06:23:29.094Z,94.47
2017-05-30T06:24:29.092Z,94.13
2017-05-30T06:25:29.107Z,93.98
2017-05-30T06:26:29.065Z,93.6
2017-05-30T06:27:29.056Z,93.54
2017-05-30T06:28:28.742Z,93.54
2017-05-30T06:29:29.042Z,92.96
2017-05-30T06:30:29.027Z,93.16
2017-05-30T06:31:29.033Z,93.06
2017-05-30T06:32:29.014Z,93.06
2017-05-30T06:33:28.690Z,94.08
2017-05-30T06:34:28.992Z,93.79
2017-05-30T06:35:28.676Z,93.98
2017-05-30T06:36:28.973Z,93.98
2017-05-30T06:37:28.961Z,93.6
2017-05-30T06:38:28.959Z,93.7
2017-05-30T06:39:28.941Z,92.92
2017-05-30T06:40:28.934Z,92.67
2017-05-30T06:41:28.919Z,92.72
2017-05-30T06:42:28.905Z,92.38
2017-05-30T06:43:28.900Z,92.05
2017-05-30T06:44:28.891Z,91.51
2017-05-30T06:45:28.901Z,91.37
2017-05-30T06:46:28.870Z,91.71
2017-05-30T06:47:28.872Z,91.89
2017-05-30T06:48:28.859Z,91.12
2017-05-30T06:49:28.881Z,90.83
2017-05-30T06:50:28.840Z,90.83
2017-05-30T06:51:28.833Z,91.02
2017-05-30T06:52:28.824Z,90.3
2017-05-30T06:53:28.924Z,90.3
2017-05-30T06:54:28.802Z,91.02
2017-05-30T06:55:29.333Z,90.83
2017-05-30T06:56:29.317Z,90.64
2017-05-30T06:57:28.469Z,90.73
2017-05-30T06:58:28.772Z,90.16
2017-05-30T06:59:28.550Z,90.44
2017-05-30T07:00:28.742Z,90
2017-05-30T07:01:28.792Z,89.96
2017-05-30T07:02:29.193Z,90.34
2017-05-30T07:03:28.733Z,90.44
2017-05-30T07:04:29.204Z,90.44
2017-05-30T07:05:29.169Z,90.54
2017-05-30T07:06:28.767Z,90.83
2017-05-30T07:07:29.212Z,90.44
2017-05-30T07:08:29.201Z,90.73
2017-05-30T07:09:28.779Z,90.64
2017-05-30T07:10:28.679Z,90.64
2017-05-30T07:11:29.094Z,90.64
2017-05-30T07:12:29.215Z,90.34
2017-05-30T07:13:29.126Z,90.16
2017-05-30T07:14:28.673Z,90.88
2017-05-30T07:15:29.121Z,90.34
2017-05-30T07:16:28.648Z,90.54
2017-05-30T07:17:29.111Z,90.97
2017-05-30T07:18:28.686Z,90.39
2017-05-30T07:19:29.068Z,90.2
2017-05-30T07:20:29.107Z,90.93
2017-05-30T07:21:28.559Z,90.1
2017-05-30T07:22:28.534Z,90.64
2017-05-30T07:23:28.523Z,90.93
2017-05-30T07:24:28.211Z,90.83
2017-05-30T07:25:28.521Z,91.17
2017-05-30T07:26:28.496Z,91.36
2017-05-30T07:27:28.491Z,90.64
2017-05-30T07:28:28.480Z,90.97
2017-05-30T07:29:28.492Z,91.22
2017-05-30T07:30:28.205Z,91.51
2017-05-30T07:31:28.451Z,90.83
2017-05-30T07:32:28.447Z,90.68
2017-05-30T07:33:28.432Z,90.3
2017-05-30T07:34:28.433Z,90.39
2017-05-30T07:35:28.410Z,90.78
2017-05-30T07:36:28.411Z,90.88
2017-05-30T07:37:28.391Z,90.88
2017-05-30T07:38:28.381Z,91.22
2017-05-30T07:39:28.067Z,90.88
2017-05-30T07:40:28.068Z,90.97
2017-05-30T07:41:28.055Z,91.85
2017-05-30T07:42:28.110Z,92.09
2017-05-30T07:43:28.353Z,92.09
2017-05-30T07:44:28.032Z,91.89
2017-05-30T07:45:28.323Z,91.51
2017-05-30T07:46:28.372Z,91.99
2017-05-30T07:47:28.403Z,91.75
2017-05-30T07:48:28.370Z,91.46
2017-05-30T07:49:27.980Z,91.55
2017-05-30T07:50:28.282Z,90.44
2017-05-30T07:51:28.365Z,90.14
2017-05-30T07:52:28.000Z,90.3
2017-05-30T07:53:28.264Z,90.53
2017-05-30T07:54:27.934Z,90.3
2017-05-30T07:55:28.224Z,91.02
2017-05-30T07:56:28.269Z,90.05
2017-05-30T07:57:27.911Z,89.61
2017-05-30T07:58:28.210Z,89.9
2017-05-30T07:59:28.194Z,90.24
2017-05-30T08:00:28.183Z,90.58
2017-05-30T08:01:28.230Z,89.51
2017-05-30T08:02:28.161Z,88.73
2017-05-30T08:03:27.850Z,88.44
2017-05-30T08:04:28.153Z,88.93
2017-05-30T08:05:27.838Z,88.73
2017-05-30T08:06:28.129Z,89.22
2017-05-30T08:07:27.822Z,88.73
2017-05-30T08:08:28.121Z,88.24
2017-05-30T08:09:27.805Z,88.29
2017-05-30T08:10:28.089Z,87.9
2017-05-30T08:11:27.790Z,87.96
2017-05-30T08:12:27.778Z,87.86
2017-05-30T08:13:28.098Z,87.32
2017-05-30T08:14:28.071Z,88.05
2017-05-30T08:15:28.058Z,86.99
2017-05-30T08:16:28.050Z,86.3
2017-05-30T08:17:28.030Z,86.5
2017-05-30T08:18:28.030Z,85.86
2017-05-30T08:19:28.022Z,85.28
2017-05-30T08:20:28.004Z,86.6
2017-05-30T08:21:28.003Z,86.79
2017-05-30T08:22:28.010Z,87.27
2017-05-30T08:23:27.996Z,86.05
2017-05-30T08:24:27.672Z,85.08
2017-05-30T08:25:27.670Z,84.89
2017-05-30T08:26:27.974Z,84.79
2017-05-30T08:27:27.969Z,84.41
2017-05-30T08:28:27.960Z,83.96
2017-05-30T08:29:27.939Z,83.03
2017-05-30T08:30:27.933Z,83.71
2017-05-30T08:31:27.931Z,83.17
2017-05-30T08:32:27.977Z,82.33
2017-05-30T08:33:27.971Z,82.14
2017-05-30T08:34:27.908Z,82.43
2017-05-30T08:35:27.890Z,82.04
2017-05-30T08:36:27.948Z,82.84
2017-05-30T08:37:27.878Z,82.45
2017-05-30T08:38:27.570Z,84
2017-05-30T08:39:27.561Z,83.71
2017-05-30T08:40:27.919Z,82.93
2017-05-30T08:41:27.849Z,82
2017-05-30T08:42:27.842Z,82.99
2017-05-30T08:43:27.838Z,82.58
2017-05-30T08:44:27.522Z,81.46
2017-05-30T08:45:27.512Z,80.38
2017-05-30T08:46:27.813Z,80.58
2017-05-30T08:47:27.810Z,81.02
2017-05-30T08:48:27.498Z,80.58
2017-05-30T08:49:27.818Z,80.64
2017-05-30T08:50:27.481Z,80.48
2017-05-30T08:51:27.784Z,79.74
2017-05-30T08:52:27.779Z,80.13
2017-05-30T08:53:27.766Z,79.35
2017-05-30T08:54:27.753Z,79.94
2017-05-30T08:55:27.751Z,80.13
2017-05-30T08:56:27.749Z,80.09
2017-05-30T08:57:27.429Z,80.48
2017-05-30T08:58:27.729Z,80.93
2017-05-30T08:59:27.409Z,80.09
2017-05-30T09:00:27.411Z,79.35
2017-05-30T09:01:27.721Z,79.25
2017-05-30T09:02:27.395Z,79
2017-05-30T09:03:27.767Z,79.35
2017-05-30T09:04:27.691Z,78.03
2017-05-30T09:05:27.382Z,77.87
2017-05-30T09:06:27.376Z,78.06
2017-05-30T09:07:27.376Z,77.03
2017-05-30T09:08:27.690Z,76.06
2017-05-30T09:09:27.668Z,76.09
2017-05-30T09:10:27.660Z,75.64
2017-05-30T09:11:27.359Z,76.27
2017-05-30T09:12:27.651Z,74.15
2017-05-30T09:13:27.649Z,73.37
2017-05-30T09:14:27.640Z,73.86
2017-05-30T09:15:27.631Z,74.41
2017-05-30T09:16:27.631Z,74.71
2017-05-30T09:17:27.649Z,74.87
2017-05-30T09:18:27.322Z,75.45
2017-05-30T09:19:27.314Z,75.21
2017-05-30T09:20:27.605Z,75.02
2017-05-30T09:21:27.312Z,75.02
2017-05-30T09:22:27.601Z,75.9
2017-05-30T09:23:27.609Z,75.9
2017-05-30T09:24:27.604Z,75.57
2017-05-30T09:25:27.595Z,75.21
2017-05-30T09:26:27.590Z,75.21
2017-05-30T09:27:27.579Z,75.31
2017-05-30T09:28:27.598Z,76.58
2017-05-30T09:29:27.587Z,78.26
2017-05-30T09:30:27.570Z,78.71
2017-05-30T09:31:27.573Z,78.48
2017-05-30T09:32:27.261Z,78.71
2017-05-30T09:33:27.588Z,78.26
2017-05-30T09:34:27.546Z,77.87
2017-05-30T09:35:27.549Z,78.16
2017-05-30T09:36:27.550Z,78.91
2017-05-30T09:37:27.229Z,78.61
2017-05-30T09:38:27.232Z,78.65
2017-05-30T09:39:27.523Z,79.04
2017-05-30T09:40:27.520Z,78.3
2017-05-30T09:41:27.522Z,77.17
2017-05-30T09:42:27.509Z,76.78
2017-05-30T09:43:27.497Z,76.87
2017-05-30T09:44:27.499Z,77.56
2017-05-30T09:45:27.491Z,77.66
2017-05-30T09:46:27.191Z,76.97
2017-05-30T09:47:27.501Z,76.58
2017-05-30T09:48:27.498Z,76.58
2017-05-30T09:49:27.487Z,76.68
2017-05-30T09:50:27.168Z,76.58
2017-05-30T09:51:27.461Z,77.11
2017-05-30T09:52:27.461Z,76.68
2017-05-30T09:53:27.460Z,77.26
2017-05-30T09:54:27.452Z,76.54
2017-05-30T09:55:27.456Z,76.84
2017-05-30T09:56:27.453Z,77.87
2017-05-30T09:57:27.448Z,78.26
2017-05-30T09:58:27.439Z,77.13
2017-05-30T09:59:27.429Z,78.2
2017-05-30T10:00:27.108Z,78.11
2017-05-30T10:01:27.114Z,77.72
2017-05-30T10:02:27.421Z,78.2
2017-05-30T10:03:27.097Z,78.01
2017-05-30T10:04:27.089Z,78.36
2017-05-30T10:05:27.394Z,78.91
2017-05-30T10:06:27.394Z,79.06
2017-05-30T10:07:27.376Z,77.83
2017-05-30T10:08:27.069Z,76.9
2017-05-30T10:09:27.372Z,76.7
2017-05-30T10:10:27.059Z,76.8
2017-05-30T10:11:27.058Z,77.09
2017-05-30T10:12:27.359Z,77.39
2017-05-30T10:13:27.047Z,77.13
2017-05-30T10:14:27.034Z,76.7
2017-05-30T10:15:27.332Z,78.01
2017-05-30T10:16:27.030Z,77.97
2017-05-30T10:17:27.332Z,77.68
2017-05-30T10:18:27.319Z,77.33
2017-05-30T10:19:27.006Z,76.74
2017-05-30T10:20:26.998Z,76.84
2017-05-30T10:21:27.301Z,76.93
2017-05-30T10:22:27.291Z,76.84
2017-05-30T10:23:27.298Z,77.29
2017-05-30T10:24:27.286Z,77.58
2017-05-30T10:25:26.967Z,78.13
2017-05-30T10:26:26.967Z,78.42
2017-05-30T10:27:26.954Z,78.77
2017-05-30T10:28:27.252Z,79.35
2017-05-30T10:29:26.942Z,79.61
2017-05-30T10:30:26.937Z,80.68
2017-05-30T10:31:27.252Z,81.36
2017-05-30T10:32:27.233Z,81.22
2017-05-30T10:33:27.224Z,80.97
2017-05-30T10:34:27.215Z,81.16
2017-05-30T10:35:27.214Z,80.04
2017-05-30T10:36:27.207Z,79.16
2017-05-30T10:37:27.194Z,79.3
2017-05-30T10:38:27.205Z,79.16
2017-05-30T10:39:27.181Z,79
2017-05-30T10:40:26.870Z,78.96
2017-05-30T10:41:27.165Z,79.06
2017-05-30T10:42:26.854Z,77.44
2017-05-30T10:43:27.160Z,76.96
2017-05-30T10:44:27.149Z,76.18
2017-05-30T10:45:26.839Z,75.69
2017-05-30T10:46:27.136Z,75.43
2017-05-30T10:47:26.818Z,74.98
2017-05-30T10:48:27.128Z,74.11
2017-05-30T10:49:27.114Z,74.48
2017-05-30T10:50:27.107Z,72.95
2017-05-30T10:51:26.794Z,72.95
2017-05-30T10:52:26.787Z,73.24
2017-05-30T10:53:26.852Z,73.37
2017-05-30T10:54:27.072Z,72.92
2017-05-30T10:55:27.133Z,71.45
2017-05-30T10:56:26.764Z,72.88
2017-05-30T10:57:26.858Z,72.14
2017-05-30T10:58:26.748Z,73.27
2017-05-30T10:59:27.055Z,72.24
2017-05-30T11:00:26.732Z,71.84
2017-05-30T11:01:27.101Z,70.02
2017-05-30T11:02:27.028Z,70.38
2017-05-30T11:03:27.030Z,70.87
2017-05-30T11:04:27.029Z,70.77
2017-05-30T11:05:26.713Z,70.12
2017-05-30T11:06:26.998Z,68.68
2017-05-30T11:07:26.704Z,69.04
2017-05-30T11:08:27.013Z,69.86
2017-05-30T11:09:27.001Z,70.8
2017-05-30T11:10:26.689Z,71.91
2017-05-30T11:11:26.674Z,72.95
2017-05-30T11:12:26.689Z,73.54
2017-05-30T11:13:26.975Z,72.75
2017-05-30T11:14:26.972Z,73.34
2017-05-30T11:15:26.961Z,72.78
2017-05-30T11:16:26.953Z,71.81
2017-05-30T11:17:26.644Z,71.75
2017-05-30T11:18:26.660Z,71.94
2017-05-30T11:19:26.630Z,72.04
2017-05-30T11:20:26.673Z,71.45
2017-05-30T11:21:26.629Z,72.04
2017-05-30T11:22:26.932Z,72.59
2017-05-30T11:23:26.915Z,73.14
2017-05-30T11:24:26.671Z,73.34
2017-05-30T11:25:26.920Z,74.02
2017-05-30T11:26:26.612Z,73.69
2017-05-30T11:27:26.590Z,73.69
2017-05-30T11:28:26.583Z,73.46
2017-05-30T11:29:26.919Z,74.05
2017-05-30T11:30:26.661Z,74.05
2017-05-30T11:31:26.890Z,74.3
2017-05-30T11:32:26.617Z,75.04
2017-05-30T11:33:26.856Z,75.3
2017-05-30T11:34:26.850Z,76.04
2017-05-30T11:35:26.849Z,76.53
2017-05-30T11:36:26.532Z,76.63
2017-05-30T11:37:26.898Z,77.6
2017-05-30T11:38:26.822Z,77.47
2017-05-30T11:39:26.834Z,77.37
2017-05-30T11:40:26.823Z,77.76
2017-05-30T11:41:26.813Z,78.15
2017-05-30T11:42:26.791Z,78.99
2017-05-30T11:43:26.482Z,79.18
2017-05-30T11:44:26.781Z,79.33
2017-05-30T11:45:26.803Z,79.43
2017-05-30T11:46:26.760Z,79.08
2017-05-30T11:47:26.770Z,79.08
2017-05-30T11:48:26.757Z,77.86
2017-05-30T11:49:26.742Z,77.11
2017-05-30T11:50:26.728Z,75.92
2017-05-30T11:51:26.425Z,75.63
2017-05-30T11:52:26.719Z,76.02
2017-05-30T11:53:26.719Z,75.73
2017-05-30T11:54:26.705Z,75.73
2017-05-30T11:55:26.700Z,75.34
2017-05-30T11:56:26.703Z,76.21
2017-05-30T11:57:26.888Z,75.89
2017-05-30T11:58:26.691Z,76.37
2017-05-30T11:59:26.672Z,76.53
2017-05-30T12:00:26.359Z,76.96
2017-05-30T12:01:26.648Z,77.06
2017-05-30T12:02:26.644Z,76.86
2017-05-30T12:03:26.660Z,79.16
2017-05-30T12:04:26.646Z,80.43
2017-05-30T12:05:26.628Z,81.59
2017-05-30T12:06:26.616Z,83.31
2017-05-30T12:07:26.616Z,84.92
2017-05-30T12:08:26.613Z,85.75
2017-05-30T12:09:26.298Z,86.58
2017-05-30T12:10:26.662Z,87.65
2017-05-30T12:11:26.639Z,87.95
2017-05-30T12:12:26.270Z,89.4
2017-05-30T12:13:26.629Z,89.07
2017-05-30T12:14:26.582Z,90.04
2017-05-30T12:15:26.547Z,90.72
2017-05-30T12:16:26.237Z,90.72
2017-05-30T12:17:26.571Z,91.59
2017-05-30T12:18:26.566Z,93.1
2017-05-30T12:19:26.522Z,94.85
2017-05-30T12:20:26.531Z,95.48
2017-05-30T12:21:26.508Z,97.03
2017-05-30T12:22:26.494Z,96.45
2017-05-30T12:23:26.474Z,96.26
2017-05-30T12:24:26.492Z,96.84
2017-05-30T12:25:26.470Z,96.11
2017-05-30T12:26:26.149Z,96.84
2017-05-30T12:27:26.453Z,96.26
2017-05-30T12:28:26.444Z,96.98
2017-05-30T12:29:26.119Z,96.84
2017-05-30T12:30:26.413Z,96.31
2017-05-30T12:31:26.410Z,95.92
2017-05-30T12:32:26.402Z,95.24
2017-05-30T12:33:26.387Z,95.73
2017-05-30T12:34:26.075Z,95.73
2017-05-30T12:35:26.361Z,95.77
2017-05-30T12:36:26.062Z,95.78
2017-05-30T12:37:26.342Z,96.98
2017-05-30T12:38:26.342Z,96.6
2017-05-30T12:39:26.331Z,96.5
2017-05-30T12:40:26.321Z,96.98
2017-05-30T12:41:26.321Z,96.5
2017-05-30T12:42:26.106Z,97.08
2017-05-30T12:43:25.999Z,97.76
2017-05-30T12:44:26.083Z,96.6
2017-05-30T12:45:25.975Z,95.97
2017-05-30T12:46:26.256Z,95.87
2017-05-30T12:47:26.260Z,95.72
2017-05-30T12:48:26.257Z,94.56
2017-05-30T12:49:26.229Z,95.24
2017-05-30T12:50:26.223Z,94.26
2017-05-30T12:51:25.914Z,93.82
2017-05-30T12:52:25.891Z,94.12
2017-05-30T12:53:26.205Z,92.27
2017-05-30T12:54:25.890Z,88.97